Pagrindinis puslapis
METAR-TAF:

METAR-TAF

Oro uostai :

Resistensija, Argentina

platuma: 27-27S, ilguma: 059-03W, Aukštis: 53 m

Dabartinis oras

Ataskaita buvo paskelbta 40 minutes, ne 01:00 UTC
Vėjas 11 kt iš Šiaurės Rytų
Temperatūra 24°C
Drėgmė 44%
Slėgis 1015 hPa
Matomumas 10 km arba daugiau
nėra debesų žemiau 1500 m ir nėra kamuolinių lietaus debesų

METAR: SARE 060100Z 05011KT CAVOK 24/11 Q1015

Laikas: 22:40 (01:40 UTC)

Prognozė

Ataskaita buvo paskelbta 2 valandos ir 40 minutes, ne 23:00 UTC
Prognozė galioja nuo 06 metu 00 UTC su 06 metu 24 UTC
Vėjas 10 kt iš Šiaurės Rytų
Matomumas: 8000 m
Tapsmas
nuo 06 metu 03 UTC su 06 metu 06 UTC
Matomumas 10 km arba daugiau
nėra debesų žemiau 1500 m ir nėra kamuolinių lietaus debesų
Tapsmas
nuo 06 metu 12 UTC su 06 metu 14 UTC
Matomumas: 7000 m

TAF: SARE 052300Z 0600/0624 05010KT 8000 NSC TX34/0618Z TN16/0610Z BECMG 0603/0606 CAVOK BECMG 0612/0614 7000 NSC

Orai ataskaitas ir orų prognozės (METAR, TAF).

turimą stotys yra geltonos ir raudonos taškus žemėlapyje.

Perkelti pele per norėdami pamatyti stoties vardą.

Tada spustelėkite, norėdami matyti oro stebėjimo ir prognozės.

Norėdami pakeisti žemėlapį: spustelėkite ant žalios mygtukų su juodo kryžiaus žemyn,; žalią mygtuką su brūkšneliu, jei norite nutolinti; arba žalių rodyklių gretimoms žemėlapius.


METAR-TAF: